createdAt,value
2023-01-17T00:02:34.433Z,26.90
2023-01-17T00:07:55.284Z,27.13
2023-01-17T00:13:00.860Z,26.03
2023-01-17T00:18:03.229Z,26.03
2023-01-17T00:23:25.571Z,26.37
2023-01-17T00:28:28.687Z,26.30
2023-01-17T00:33:31.665Z,24.53
2023-01-17T00:38:36.813Z,26.17
2023-01-17T00:43:58.201Z,26.23
2023-01-17T00:49:19.261Z,28.07
2023-01-17T00:54:40.192Z,28.10
2023-01-17T01:00:01.005Z,27.90
2023-01-17T01:05:21.864Z,25.80
2023-01-17T01:10:42.641Z,27.23
2023-01-17T01:16:03.934Z,29.83
2023-01-17T01:21:25.036Z,28.63
2023-01-17T01:26:45.976Z,26.63
2023-01-17T01:32:06.701Z,26.40
2023-01-17T01:37:09.099Z,27.77
2023-01-17T01:42:15.601Z,24.80
2023-01-17T01:47:40.810Z,25.00
2023-01-17T01:52:48.121Z,26.30
2023-01-17T01:57:53.445Z,27.43
2023-01-17T02:03:00.019Z,28.20
2023-01-17T02:08:08.699Z,28.90
2023-01-17T02:13:13.149Z,25.63
2023-01-17T02:18:25.728Z,26.73
2023-01-17T02:23:50.030Z,27.03
2023-01-17T02:29:24.542Z,26.67
2023-01-17T02:34:56.026Z,24.93
2023-01-17T02:40:11.581Z,29.00
2023-01-17T02:45:19.332Z,31.97
2023-01-17T02:50:26.722Z,29.60
2023-01-17T02:55:57.784Z,32.67
2023-01-17T03:01:15.921Z,33.33
2023-01-17T03:06:32.473Z,35.80
2023-01-17T03:11:34.880Z,31.43
2023-01-17T03:16:37.461Z,31.30
2023-01-17T03:21:40.129Z,30.40
2023-01-17T03:26:45.072Z,32.33
2023-01-17T03:31:47.514Z,31.47
2023-01-17T03:36:49.928Z,32.93
2023-01-17T03:41:52.277Z,31.33
2023-01-17T03:46:54.588Z,31.40
2023-01-17T03:51:56.912Z,29.07
2023-01-17T03:56:59.336Z,29.07
2023-01-17T04:02:01.833Z,30.43
2023-01-17T04:07:04.677Z,29.77
2023-01-17T04:12:07.314Z,27.70
2023-01-17T04:17:13.298Z,24.93
2023-01-17T04:22:16.051Z,25.83
2023-01-17T04:27:18.690Z,26.83
2023-01-17T04:32:21.031Z,27.07
2023-01-17T04:37:23.434Z,25.07
2023-01-17T04:42:25.816Z,24.03
2023-01-17T04:47:28.190Z,24.73
2023-01-17T04:52:30.518Z,23.00
2023-01-17T04:57:32.851Z,21.23
2023-01-17T05:02:38.840Z,23.33
2023-01-17T05:07:41.177Z,26.47
2023-01-17T05:12:43.569Z,18.63
2023-01-17T05:17:45.943Z,19.40
2023-01-17T05:22:58.054Z,20.73
2023-01-17T05:28:00.700Z,19.90
2023-01-17T05:33:03.095Z,23.33
2023-01-17T05:38:05.589Z,20.47
2023-01-17T05:43:08.983Z,23.30
2023-01-17T05:48:11.381Z,22.70
2023-01-17T05:53:15.963Z,23.23
2023-01-17T05:58:21.319Z,18.23
2023-01-17T06:03:23.747Z,18.27
2023-01-17T06:08:26.123Z,14.23
2023-01-17T06:13:28.484Z,15.47
2023-01-17T06:18:31.742Z,13.30
2023-01-17T06:23:34.304Z,13.47
2023-01-17T06:28:36.667Z,14.47
2023-01-17T06:33:38.996Z,17.73
2023-01-17T06:38:41.317Z,15.47
2023-01-17T06:43:43.656Z,22.23
2023-01-17T06:48:46.187Z,15.63
2023-01-17T06:53:49.077Z,11.90
2023-01-17T06:58:52.177Z,11.10
2023-01-17T07:03:54.873Z,13.10
2023-01-17T07:08:57.449Z,15.87
2023-01-17T07:13:59.915Z,14.60
2023-01-17T07:19:02.332Z,11.40
2023-01-17T07:24:05.337Z,9.33
2023-01-17T07:29:07.804Z,10.10
2023-01-17T07:34:10.713Z,10.23
2023-01-17T07:39:13.121Z,10.13
2023-01-17T07:44:15.586Z,8.13
2023-01-17T07:49:17.962Z,9.03
2023-01-17T07:54:20.296Z,12.40
2023-01-17T07:59:22.689Z,10.97
2023-01-17T08:04:29.047Z,10.17
2023-01-17T08:09:31.576Z,8.80
2023-01-17T08:14:33.981Z,9.97
2023-01-17T08:19:36.344Z,9.67
2023-01-17T08:24:43.169Z,10.50
2023-01-17T08:29:48.382Z,12.87
2023-01-17T08:34:50.979Z,15.63
2023-01-17T08:39:53.338Z,11.80
2023-01-17T08:44:57.953Z,11.23
2023-01-17T08:50:01.102Z,12.97
2023-01-17T08:55:05.963Z,12.33
2023-01-17T09:00:09.413Z,8.60
2023-01-17T09:05:13.540Z,13.60
2023-01-17T09:10:16.445Z,8.73
2023-01-17T09:15:20.284Z,7.23
2023-01-17T09:20:23.865Z,10.57
2023-01-17T09:25:27.122Z,10.63
2023-01-17T09:30:29.586Z,5.80
2023-01-17T09:35:32.061Z,6.63
2023-01-17T09:40:36.644Z,9.20
2023-01-17T09:45:39.197Z,7.97
2023-01-17T09:50:52.807Z,8.47
2023-01-17T09:56:03.601Z,8.37
2023-01-17T10:01:06.056Z,11.00
2023-01-17T10:06:34.489Z,8.90
2023-01-17T10:11:45.869Z,9.10
2023-01-17T10:17:16.289Z,6.50
2023-01-17T10:22:31.152Z,6.23
2023-01-17T10:27:46.653Z,5.50
2023-01-17T10:32:50.419Z,5.37
2023-01-17T10:37:56.936Z,7.23
2023-01-17T10:43:10.566Z,4.97
2023-01-17T10:48:23.137Z,5.40
2023-01-17T10:53:45.145Z,59.00
2023-01-17T10:58:49.236Z,4.27
2023-01-17T11:03:53.848Z,7.03
2023-01-17T11:09:03.125Z,5.53
2023-01-17T11:14:15.218Z,6.57
2023-01-17T11:19:30.523Z,5.60
2023-01-17T11:24:37.174Z,6.13
2023-01-17T11:29:40.771Z,5.40
2023-01-17T11:34:43.150Z,5.70
2023-01-17T11:39:48.288Z,6.20
2023-01-17T11:44:50.792Z,6.27
2023-01-17T11:49:55.385Z,7.60
2023-01-17T11:54:58.191Z,4.07
2023-01-17T12:00:30.752Z,6.00
2023-01-17T12:06:02.368Z,4.80
2023-01-17T12:11:28.990Z,5.90
2023-01-17T12:16:56.042Z,3.10
2023-01-17T12:22:13.386Z,4.03
2023-01-17T12:27:25.068Z,4.37
2023-01-17T12:32:55.412Z,5.30
2023-01-17T12:38:05.559Z,5.43
2023-01-17T12:43:15.486Z,6.23
2023-01-17T12:48:20.682Z,4.20
2023-01-17T12:53:45.320Z,6.40
2023-01-17T12:58:52.739Z,4.87
2023-01-17T13:04:46.917Z,4.90
2023-01-17T13:10:21.459Z,3.60
2023-01-17T13:15:29.011Z,5.10
2023-01-17T13:20:54.008Z,6.97
2023-01-17T13:25:59.032Z,6.53
2023-01-17T13:31:21.825Z,14.97
2023-01-17T13:36:44.941Z,14.27
2023-01-17T13:42:01.047Z,12.20
2023-01-17T13:47:05.154Z,9.67
2023-01-17T13:52:11.048Z,7.20
2023-01-17T13:57:30.364Z,9.20
2023-01-17T14:02:32.739Z,4.40
2023-01-17T14:07:40.180Z,4.73
2023-01-17T14:12:43.863Z,3.73
2023-01-17T14:17:56.891Z,4.60
2023-01-17T14:23:02.340Z,7.63
2023-01-17T14:28:25.670Z,8.70
2023-01-17T14:33:34.046Z,15.63
2023-01-17T14:38:44.139Z,85.40
2023-01-17T14:43:48.432Z,39.77
2023-01-17T14:49:15.834Z,9.73
2023-01-17T14:54:22.416Z,7.93
2023-01-17T14:59:24.810Z,11.33
2023-01-17T15:04:28.895Z,28.83
2023-01-17T15:09:36.510Z,28.00
2023-01-17T15:14:42.695Z,22.20
2023-01-17T15:19:51.503Z,34.03
2023-01-17T15:24:54.602Z,105.70
2023-01-17T15:30:01.897Z,106.60
2023-01-17T15:35:08.188Z,117.00
2023-01-17T15:40:20.498Z,67.37
2023-01-17T15:45:29.965Z,99.33
2023-01-17T15:50:36.529Z,49.63
2023-01-17T15:55:39.966Z,39.77
2023-01-17T16:00:44.279Z,40.87
2023-01-17T16:05:47.684Z,33.43
2023-01-17T16:10:55.134Z,30.90
2023-01-17T16:16:30.148Z,31.00
2023-01-17T16:21:33.310Z,23.83
2023-01-17T16:26:35.727Z,17.60
2023-01-17T16:31:38.098Z,42.30
2023-01-17T16:36:40.671Z,41.97
2023-01-17T16:41:43.322Z,47.33
2023-01-17T16:46:45.650Z,49.67
2023-01-17T16:51:47.984Z,61.93
2023-01-17T16:56:50.481Z,67.67
2023-01-17T17:01:53.098Z,101.47
2023-01-17T17:06:55.433Z,101.87
2023-01-17T17:11:57.750Z,94.43
2023-01-17T17:17:03.239Z,97.13
2023-01-17T17:22:06.698Z,82.23
2023-01-17T17:27:09.183Z,82.63
2023-01-17T17:32:11.658Z,85.10
2023-01-17T17:37:16.140Z,76.00
2023-01-17T17:42:20.041Z,77.67
2023-01-17T17:47:24.027Z,84.13
2023-01-17T17:52:28.008Z,83.57
2023-01-17T17:57:30.363Z,85.77
2023-01-17T18:02:32.703Z,131.70
2023-01-17T18:07:35.062Z,151.50
2023-01-17T18:12:37.581Z,133.73
2023-01-17T18:17:39.984Z,135.07
2023-01-17T18:22:42.383Z,133.67
2023-01-17T18:27:45.164Z,142.60
2023-01-17T18:32:49.916Z,163.07
2023-01-17T18:37:52.541Z,172.43
2023-01-17T18:42:55.876Z,194.63
2023-01-17T18:47:58.378Z,207.60
2023-01-17T18:53:00.793Z,167.27
2023-01-17T18:58:03.111Z,146.73
2023-01-17T19:03:06.388Z,187.23
2023-01-17T19:08:09.576Z,206.00
2023-01-17T19:13:14.831Z,201.43
2023-01-17T19:18:17.560Z,170.20
2023-01-17T19:23:19.963Z,189.87
2023-01-17T19:28:22.572Z,201.40
2023-01-17T19:33:24.862Z,239.03
2023-01-17T19:38:27.825Z,201.53
2023-01-17T19:43:30.210Z,191.20
2023-01-17T19:48:32.602Z,134.13
2023-01-17T19:53:37.261Z,143.10
2023-01-17T19:58:39.617Z,100.67
2023-01-17T20:03:43.824Z,111.67
2023-01-17T20:08:46.585Z,104.90
2023-01-17T20:13:53.426Z,119.93
2023-01-17T20:18:56.784Z,115.40
2023-01-17T20:24:00.129Z,121.10
2023-01-17T20:29:07.383Z,136.20
2023-01-17T20:34:12.838Z,114.27
2023-01-17T20:39:15.948Z,124.00
2023-01-17T20:44:19.946Z,112.37
2023-01-17T20:49:22.441Z,114.03
2023-01-17T20:54:24.766Z,130.27
2023-01-17T20:59:27.099Z,132.43
2023-01-17T21:04:29.530Z,114.40
2023-01-17T21:09:31.913Z,121.00
2023-01-17T21:14:34.300Z,129.77
2023-01-17T21:19:36.824Z,101.40
2023-01-17T21:24:39.177Z,125.43
2023-01-17T21:29:41.513Z,109.90
2023-01-17T21:34:43.809Z,124.67
2023-01-17T21:39:51.392Z,94.43
2023-01-17T21:44:54.516Z,87.60
2023-01-17T21:49:56.905Z,128.57
2023-01-17T21:55:17.865Z,136.47
2023-01-17T22:00:20.425Z,168.77
2023-01-17T22:05:22.748Z,151.13
2023-01-17T22:10:25.094Z,146.43
2023-01-17T22:15:27.436Z,113.00
2023-01-17T22:20:29.881Z,109.33
2023-01-17T22:25:32.260Z,129.53
2023-01-17T22:30:34.788Z,145.63
2023-01-17T22:35:37.123Z,146.47
2023-01-17T22:40:39.538Z,143.00
2023-01-17T22:45:42.404Z,133.67
2023-01-17T22:50:44.737Z,136.40
2023-01-17T22:55:47.095Z,126.53
2023-01-17T23:00:49.680Z,134.77
2023-01-17T23:05:52.375Z,129.30
2023-01-17T23:11:14.965Z,119.97
2023-01-17T23:16:36.136Z,112.97
2023-01-17T23:21:57.049Z,109.03
2023-01-17T23:27:17.797Z,92.67
2023-01-17T23:32:20.151Z,71.10
2023-01-17T23:37:46.435Z,62.67
2023-01-17T23:43:07.347Z,49.00
2023-01-17T23:48:10.958Z,65.87
2023-01-17T23:53:22.126Z,55.53
2023-01-17T23:58:26.669Z,57.37
